createdAt,value
2023-05-10T00:03:05.952Z,0.70
2023-05-10T00:08:07.569Z,0.65
2023-05-10T00:13:09.221Z,0.82
2023-05-10T00:18:10.887Z,0.88
2023-05-10T00:23:13.045Z,1.10
2023-05-10T00:28:14.594Z,0.95
2023-05-10T00:33:16.174Z,0.80
2023-05-10T00:38:17.952Z,1.00
2023-05-10T00:43:19.473Z,1.40
2023-05-10T00:48:23.432Z,1.45
2023-05-10T00:53:25.654Z,1.15
2023-05-10T00:58:29.296Z,1.48
2023-05-10T01:03:31.721Z,1.50
2023-05-10T01:08:33.418Z,1.70
2023-05-10T01:13:38.930Z,1.77
2023-05-10T01:18:43.506Z,1.63
2023-05-10T01:24:09.258Z,1.70
2023-05-10T01:29:30.383Z,1.77
2023-05-10T01:34:57.787Z,1.40
2023-05-10T01:40:14.354Z,1.45
2023-05-10T01:45:20.556Z,1.40
2023-05-10T01:50:29.726Z,1.90
2023-05-10T01:55:35.424Z,1.60
2023-05-10T02:00:40.891Z,1.40
2023-05-10T02:05:46.025Z,1.60
2023-05-10T02:10:50.107Z,1.65
2023-05-10T02:15:52.792Z,2.22
2023-05-10T02:20:56.272Z,1.90
2023-05-10T02:25:59.041Z,2.20
2023-05-10T02:31:01.182Z,2.08
2023-05-10T02:36:04.818Z,3.00
2023-05-10T02:41:08.963Z,2.95
2023-05-10T02:46:12.975Z,3.25
2023-05-10T02:51:18.622Z,2.90
2023-05-10T02:56:32.746Z,2.90
2023-05-10T03:01:34.394Z,2.50
2023-05-10T03:06:36.066Z,2.85
2023-05-10T03:11:45.796Z,3.00
2023-05-10T03:16:58.641Z,2.53
2023-05-10T03:22:07.765Z,2.90
2023-05-10T03:27:11.643Z,3.20
2023-05-10T03:32:13.414Z,2.55
2023-05-10T03:37:15.111Z,2.88
2023-05-10T03:42:18.846Z,2.97
2023-05-10T03:47:20.832Z,2.20
2023-05-10T03:52:22.503Z,2.30
2023-05-10T03:57:24.296Z,2.42
2023-05-10T04:02:26.350Z,2.40
2023-05-10T04:07:28.365Z,2.45
2023-05-10T04:12:31.020Z,2.60
2023-05-10T04:17:32.575Z,2.20
2023-05-10T04:22:34.115Z,2.53
2023-05-10T04:27:35.652Z,2.45
2023-05-10T04:32:37.285Z,2.50
2023-05-10T04:37:39.003Z,2.70
2023-05-10T04:42:44.713Z,3.25
2023-05-10T04:47:46.348Z,3.17
2023-05-10T04:52:47.878Z,4.30
2023-05-10T04:57:49.435Z,3.10
2023-05-10T05:02:51.025Z,3.83
2023-05-10T05:07:52.872Z,3.22
2023-05-10T05:12:54.475Z,2.83
2023-05-10T05:17:56.147Z,2.67
2023-05-10T05:22:57.827Z,2.58
2023-05-10T05:27:59.414Z,2.63
2023-05-10T05:33:01.187Z,1.92
2023-05-10T05:38:02.794Z,1.80
2023-05-10T05:43:06.752Z,2.10
2023-05-10T05:48:08.372Z,7.25
2023-05-10T05:53:10.008Z,3.47
2023-05-10T05:58:11.563Z,2.10
2023-05-10T06:03:13.381Z,1.77
2023-05-10T06:08:15.040Z,1.70
2023-05-10T06:13:19.062Z,1.85
2023-05-10T06:18:20.651Z,1.60
2023-05-10T06:23:23.215Z,1.13
2023-05-10T06:28:28.648Z,1.27
2023-05-10T06:33:30.382Z,1.30
2023-05-10T06:38:31.967Z,1.33
2023-05-10T06:43:33.700Z,1.10
2023-05-10T06:48:35.323Z,1.00
2023-05-10T06:53:36.954Z,0.68
2023-05-10T06:58:39.080Z,0.90
2023-05-10T07:03:40.725Z,0.65
2023-05-10T07:08:42.252Z,1.20
2023-05-10T07:13:45.278Z,0.70
2023-05-10T07:18:46.899Z,0.77
2023-05-10T07:23:48.687Z,0.50
2023-05-10T07:28:50.458Z,0.40
2023-05-10T07:33:52.118Z,0.40
2023-05-10T07:38:53.697Z,0.40
2023-05-10T07:43:55.244Z,0.47
2023-05-10T07:48:56.815Z,0.50
2023-05-10T07:53:59.097Z,0.43
2023-05-10T07:59:01.203Z,0.60
2023-05-10T08:04:03.520Z,0.40
2023-05-10T08:09:05.362Z,0.40
2023-05-10T08:14:06.989Z,0.40
2023-05-10T08:19:08.947Z,0.30
2023-05-10T08:24:10.717Z,0.30
2023-05-10T08:29:12.455Z,0.50
2023-05-10T08:34:14.079Z,0.30
2023-05-10T08:39:26.733Z,0.40
2023-05-10T08:44:35.128Z,0.50
2023-05-10T08:49:38.601Z,0.30
2023-05-10T08:54:40.453Z,0.25
2023-05-10T08:59:42.240Z,0.50
2023-05-10T09:04:44.150Z,0.32
2023-05-10T09:09:46.906Z,0.30
2023-05-10T09:14:53.504Z,0.50
2023-05-10T09:20:02.508Z,0.50
2023-05-10T09:25:16.094Z,0.47
2023-05-10T09:30:29.761Z,0.60
2023-05-10T09:35:33.042Z,0.77
2023-05-10T09:40:34.815Z,0.60
2023-05-10T09:45:38.886Z,1.00
2023-05-10T09:50:41.373Z,0.60
2023-05-10T09:55:47.061Z,0.68
2023-05-10T10:00:52.258Z,0.50
2023-05-10T10:05:54.327Z,0.60
2023-05-10T10:10:55.972Z,0.40
2023-05-10T10:15:57.764Z,1.10
2023-05-10T10:21:00.150Z,1.20
2023-05-10T10:26:04.072Z,1.40
2023-05-10T10:31:20.943Z,1.42
2023-05-10T10:36:22.746Z,1.33
2023-05-10T10:41:45.057Z,1.30
2023-05-10T10:47:25.975Z,1.60
2023-05-10T10:52:30.750Z,1.80
2023-05-10T10:57:54.497Z,1.70
2023-05-10T11:03:09.281Z,1.30
2023-05-10T11:08:30.690Z,1.30
2023-05-10T11:13:55.544Z,1.08
2023-05-10T11:19:03.978Z,0.70
2023-05-10T11:24:14.476Z,0.57
2023-05-10T11:29:17.017Z,0.65
2023-05-10T11:34:36.330Z,0.55
2023-05-10T11:39:38.053Z,0.60
2023-05-10T11:44:39.818Z,0.50
2023-05-10T11:49:45.400Z,0.60
2023-05-10T11:54:53.081Z,0.63
2023-05-10T11:59:56.002Z,0.60
2023-05-10T12:04:58.077Z,0.40
2023-05-10T12:10:17.591Z,0.40
2023-05-10T12:15:24.499Z,0.40
2023-05-10T12:20:28.767Z,0.40
2023-05-10T12:25:35.592Z,0.28
2023-05-10T12:30:38.169Z,0.30
2023-05-10T12:35:57.337Z,0.50
2023-05-10T12:41:00.984Z,0.30
2023-05-10T12:46:15.164Z,0.40
2023-05-10T12:51:20.315Z,0.57
2023-05-10T12:56:22.100Z,0.77
2023-05-10T13:01:23.758Z,0.75
2023-05-10T13:06:25.449Z,0.80
2023-05-10T13:11:27.240Z,0.80
2023-05-10T13:16:28.825Z,0.60
2023-05-10T13:21:30.488Z,0.75
2023-05-10T13:26:31.980Z,0.40
2023-05-10T13:31:34.150Z,2.38
2023-05-10T13:36:35.998Z,1.73
2023-05-10T13:41:38.425Z,0.90
2023-05-10T13:46:40.514Z,0.55
2023-05-10T13:51:42.253Z,0.50
2023-05-10T13:56:44.910Z,0.60
2023-05-10T14:01:46.535Z,0.30
2023-05-10T14:06:48.106Z,0.60
2023-05-10T14:11:49.683Z,0.30
2023-05-10T14:16:51.708Z,0.45
2023-05-10T14:21:53.383Z,0.73
2023-05-10T14:26:55.292Z,0.30
2023-05-10T14:31:56.985Z,0.20
2023-05-10T14:36:59.428Z,0.30
2023-05-10T14:42:01.124Z,0.40
2023-05-10T14:47:03.425Z,0.40
2023-05-10T14:52:05.178Z,0.15
2023-05-10T14:57:07.765Z,0.40
2023-05-10T15:02:09.425Z,0.30
2023-05-10T15:07:15.656Z,0.30
2023-05-10T15:12:17.368Z,0.20
2023-05-10T15:17:18.914Z,0.20
2023-05-10T15:22:20.883Z,0.20
2023-05-10T15:27:22.477Z,0.30
2023-05-10T15:32:24.132Z,0.20
2023-05-10T15:37:25.781Z,0.30
2023-05-10T15:42:27.344Z,0.57
2023-05-10T15:47:31.176Z,0.40
2023-05-10T15:52:32.881Z,0.47
2023-05-10T15:57:36.273Z,0.40
2023-05-10T16:02:39.318Z,0.20
2023-05-10T16:07:42.052Z,0.30
2023-05-10T16:12:44.131Z,0.50
2023-05-10T16:17:45.852Z,0.22
2023-05-10T16:22:47.687Z,0.38
2023-05-10T16:27:49.397Z,0.25
2023-05-10T16:32:51.059Z,0.40
2023-05-10T16:37:53.238Z,0.05
2023-05-10T16:42:54.822Z,0.10
2023-05-10T16:47:56.678Z,0.00
2023-05-10T16:52:58.463Z,0.05
2023-05-10T16:58:00.902Z,0.10
2023-05-10T17:03:02.697Z,0.10
2023-05-10T17:08:04.564Z,0.20
2023-05-10T17:13:08.668Z,0.20
2023-05-10T17:18:12.508Z,0.20
2023-05-10T17:23:14.193Z,0.10
2023-05-10T17:28:15.823Z,0.20
2023-05-10T17:33:17.478Z,0.25
2023-05-10T17:38:19.049Z,0.20
2023-05-10T17:43:20.837Z,0.20
2023-05-10T17:48:23.071Z,0.20
2023-05-10T17:53:24.870Z,0.30
2023-05-10T17:58:26.598Z,0.20
2023-05-10T18:03:28.158Z,0.13
2023-05-10T18:08:31.259Z,0.25
2023-05-10T18:13:35.073Z,0.30
2023-05-10T18:18:36.878Z,0.30
2023-05-10T18:23:38.443Z,0.40
2023-05-10T18:28:40.244Z,0.30
2023-05-10T18:33:42.099Z,0.25
2023-05-10T18:38:43.780Z,0.30
2023-05-10T18:43:45.293Z,0.50
2023-05-10T18:48:47.137Z,0.70
2023-05-10T18:53:49.436Z,0.50
2023-05-10T18:58:51.345Z,0.40
2023-05-10T19:03:52.935Z,0.45
2023-05-10T19:08:54.516Z,0.40
2023-05-10T19:13:56.079Z,0.50
2023-05-10T19:18:57.749Z,0.30
2023-05-10T19:24:01.288Z,0.30
2023-05-10T19:29:04.989Z,0.20
2023-05-10T19:34:07.155Z,0.30
2023-05-10T19:39:09.130Z,0.50
2023-05-10T19:44:10.753Z,0.70
2023-05-10T19:49:12.534Z,0.68
2023-05-10T19:54:14.089Z,0.40
2023-05-10T19:59:16.086Z,0.30
2023-05-10T20:04:17.729Z,0.40
2023-05-10T20:09:19.311Z,0.30
2023-05-10T20:14:21.039Z,0.40
2023-05-10T20:19:22.681Z,0.40
2023-05-10T20:24:24.794Z,0.43
2023-05-10T20:29:26.526Z,0.50
2023-05-10T20:34:28.106Z,0.63
2023-05-10T20:39:30.057Z,0.70
2023-05-10T20:44:31.669Z,0.30
2023-05-10T20:49:33.991Z,0.40
2023-05-10T20:54:35.816Z,0.50
2023-05-10T20:59:37.370Z,0.60
2023-05-10T21:04:39.040Z,0.50
2023-05-10T21:09:40.828Z,0.50
2023-05-10T21:14:43.804Z,0.50
2023-05-10T21:19:45.393Z,0.45
2023-05-10T21:24:47.211Z,0.40
2023-05-10T21:29:48.819Z,0.50
2023-05-10T21:34:50.397Z,0.50
2023-05-10T21:39:52.876Z,0.60
2023-05-10T21:44:54.720Z,0.70
2023-05-10T21:49:56.302Z,0.65
2023-05-10T21:54:57.836Z,0.65
2023-05-10T21:59:59.458Z,0.60
2023-05-10T22:05:02.248Z,0.68
2023-05-10T22:10:04.083Z,0.52
2023-05-10T22:20:10.875Z,0.70
2023-05-10T22:25:12.570Z,0.70
2023-05-10T22:30:14.329Z,0.80
2023-05-10T22:35:15.956Z,0.77
2023-05-10T22:40:17.731Z,0.68
2023-05-10T22:45:19.588Z,0.82
2023-05-10T22:50:21.699Z,0.80
2023-05-10T22:55:23.777Z,0.80
2023-05-10T23:00:25.621Z,0.75
2023-05-10T23:05:27.214Z,0.68
2023-05-10T23:10:29.251Z,0.63
2023-05-10T23:15:33.108Z,0.60
2023-05-10T23:20:34.691Z,0.65
2023-05-10T23:25:36.985Z,0.60
2023-05-10T23:30:38.593Z,0.50
2023-05-10T23:35:40.153Z,0.40
2023-05-10T23:40:41.801Z,0.55
2023-05-10T23:45:43.607Z,0.50
2023-05-10T23:50:45.338Z,0.50
2023-05-10T23:55:47.027Z,0.60
